Time;durP1;ratioP1;P1;durP2;ratioP2;P2;SDS_P1;SDS_P2;PMS_P1;PMS_P2;Temp;Humidity;BMP_temperature;BMP_pressure;BME280_temperature;BME280_humidity;BME280_pressure;Samples;Min_cycle;Max_cycle;Signal;HPM_P1;HPM_P2
2021/01/21 00:01:47;;;;;;;5.70;2.40;;;10.50;76.20;;;;;;5009714;28;20128;-58
2021/01/21 00:04:12;;;;;;;5.20;2.72;;;10.50;76.20;;;;;;5011743;28;20056;-54
2021/01/21 00:06:40;;;;;;;5.28;2.15;;;10.50;75.40;;;;;;5011662;28;20041;-57
2021/01/21 00:09:06;;;;;;;6.55;2.20;;;10.50;75.70;;;;;;5011184;28;20398;-54
2021/01/21 00:11:32;;;;;;;5.90;2.33;;;10.50;75.70;;;;;;5012134;28;20452;-58
2021/01/21 00:13:58;;;;;;;7.32;2.30;;;10.50;75.80;;;;;;5006135;28;20045;-58
2021/01/21 00:16:23;;;;;;;3.92;2.13;;;10.40;75.90;;;;;;5007231;28;20042;-57
2021/01/21 00:18:49;;;;;;;5.57;2.15;;;10.40;76.20;;;;;;5010323;28;20038;-57
2021/01/21 00:21:14;;;;;;;7.00;2.53;;;10.50;75.50;;;;;;5012226;28;20046;-57
2021/01/21 00:23:40;;;;;;;6.68;2.45;;;10.40;76.10;;;;;;5011252;28;20041;-58
2021/01/21 00:26:06;;;;;;;8.80;2.30;;;10.40;75.80;;;;;;5010411;28;20037;-58
2021/01/21 00:28:31;;;;;;;7.95;2.58;;;10.40;75.80;;;;;;5011482;28;20379;-58
2021/01/21 00:30:57;;;;;;;4.70;2.30;;;10.30;76.00;;;;;;5004686;28;20092;-56
2021/01/21 00:33:23;;;;;;;5.47;2.00;;;10.30;75.70;;;;;;5011237;28;20049;-57
2021/01/21 00:35:49;;;;;;;7.00;1.98;;;10.30;76.10;;;;;;5010317;28;20050;-57
2021/01/21 00:38:14;;;;;;;6.10;2.15;;;10.40;75.60;;;;;;5011521;28;20561;-55
2021/01/21 00:40:43;;;;;;;5.20;1.88;;;10.40;75.50;;;;;;5011285;28;20034;-58
2021/01/21 00:43:09;;;;;;;5.20;2.72;;;10.40;75.40;;;;;;4995989;28;20069;-54
2021/01/21 00:45:34;;;;;;;6.28;2.05;;;10.30;75.50;;;;;;5010747;28;20069;-52
2021/01/21 00:48:00;;;;;;;8.50;2.42;;;10.30;75.50;;;;;;4999164;28;20401;-50
2021/01/21 00:50:26;;;;;;;5.47;1.85;;;10.40;75.20;;;;;;5008720;28;20550;-53
2021/01/21 00:52:51;;;;;;;5.20;1.80;;;10.30;75.50;;;;;;5003236;28;20112;-56
2021/01/21 00:55:18;;;;;;;6.30;2.13;;;10.30;75.20;;;;;;5009491;28;20057;-50
2021/01/21 00:57:43;;;;;;;5.35;1.88;;;10.30;75.60;;;;;;5009923;28;20136;-52
2021/01/21 01:00:12;;;;;;;4.82;1.83;;;10.40;75.10;;;;;;5009354;28;20125;-56
2021/01/21 01:02:38;;;;;;;5.18;1.80;;;10.40;74.40;;;;;;5010767;28;20052;-56
2021/01/21 01:05:06;;;;;;;3.78;1.73;;;10.50;74.60;;;;;;5009468;28;20046;-56
2021/01/21 01:07:32;;;;;;;4.28;1.60;;;10.40;74.80;;;;;;5010716;28;20481;-56
2021/01/21 01:09:57;;;;;;;4.35;1.90;;;10.40;74.90;;;;;;5009931;28;20060;-53
2021/01/21 01:12:23;;;;;;;4.35;2.00;;;10.40;74.70;;;;;;5009689;28;20125;-50
2021/01/21 01:14:50;;;;;;;6.28;2.22;;;10.40;74.70;;;;;;5010970;28;20410;-54
2021/01/21 01:17:15;;;;;;;7.72;2.00;;;10.30;74.70;;;;;;5008789;28;20042;-51
2021/01/21 01:19:41;;;;;;;6.50;2.20;;;10.30;74.70;;;;;;5011298;28;20041;-56
2021/01/21 01:22:07;;;;;;;6.60;2.33;;;10.40;74.50;;;;;;5009838;28;20038;-53
2021/01/21 01:24:32;;;;;;;4.75;2.05;;;10.30;74.40;;;;;;5008680;28;20045;-53
2021/01/21 01:26:58;;;;;;;6.95;2.20;;;10.20;74.80;;;;;;5010726;28;20053;-52
2021/01/21 01:29:24;;;;;;;4.80;2.00;;;10.30;75.30;;;;;;5008994;28;20042;-54
2021/01/21 01:31:49;;;;;;;5.70;1.80;;;10.30;74.60;;;;;;5006390;28;20038;-60
2021/01/21 01:34:15;;;;;;;5.38;2.20;;;10.30;74.10;;;;;;5009348;28;20100;-58
2021/01/21 01:36:41;;;;;;;3.35;1.58;;;10.20;74.50;;;;;;5010585;28;20465;-58
2021/01/21 01:39:07;;;;;;;5.95;1.67;;;10.30;74.40;;;;;;5009628;28;20038;-57
2021/01/21 01:41:32;;;;;;;6.93;1.80;;;10.30;74.20;;;;;;5007247;28;20108;-58
2021/01/21 01:43:58;;;;;;;4.65;1.83;;;10.30;74.00;;;;;;5001022;28;20513;-58
2021/01/21 01:46:25;;;;;;;6.30;1.60;;;10.30;73.90;;;;;;5005888;28;20049;-58
2021/01/21 01:48:51;;;;;;;5.18;1.88;;;10.30;74.10;;;;;;4997737;28;20033;-58
2021/01/21 01:51:16;;;;;;;5.22;1.80;;;10.30;74.20;;;;;;5010685;28;20104;-58
2021/01/21 01:53:42;;;;;;;3.28;1.58;;;10.40;73.80;;;;;;5007598;28;20038;-58
2021/01/21 01:56:08;;;;;;;6.25;2.10;;;10.40;73.50;;;;;;5011264;28;20088;-58
2021/01/21 01:58:33;;;;;;;4.63;1.50;;;10.50;73.20;;;;;;5009493;28;20093;-57
2021/01/21 02:01:00;;;;;;;5.28;1.85;;;10.50;73.50;;;;;;5010546;28;20038;-56
2021/01/21 02:03:25;;;;;;;3.28;1.70;;;10.50;73.30;;;;;;5009179;28;20042;-56
2021/01/21 02:05:52;;;;;;;2.10;1.30;;;10.50;73.10;;;;;;4998551;28;20407;-56
2021/01/21 02:08:22;;;;;;;4.05;1.63;;;10.50;73.20;;;;;;5010026;28;20406;-56
2021/01/21 02:10:49;;;;;;;5.38;1.92;;;10.60;72.60;;;;;;5012979;28;20052;-56
2021/01/21 02:13:59;;;;;;;4.72;1.70;;;10.60;72.20;;;;;;5013235;28;20042;-55
2021/01/21 02:16:34;;;;;;;6.30;1.75;;;10.60;72.90;;;;;;4933310;29;20480;-56
2021/01/21 02:19:51;;;;;;;9.32;2.00;;;10.60;72.30;;;;;;5005790;28;20042;-57
2021/01/21 02:22:41;;;;;;;3.95;1.77;;;10.60;72.00;;;;;;5012072;28;20057;-57
2021/01/21 02:25:21;;;;;;;4.03;1.55;;;10.60;72.20;;;;;;5013156;28;20409;-58
2021/01/21 02:27:49;;;;;;;4.60;1.80;;;10.70;71.50;;;;;;5006497;28;20045;-57
2021/01/21 02:30:53;;;;;;;4.07;1.60;;;10.70;71.50;;;;;;5014585;28;20044;-57
2021/01/21 02:33:29;;;;;;;5.18;1.70;;;10.70;71.30;;;;;;5003905;28;20091;-55
2021/01/21 02:36:03;;;;;;;8.80;1.88;;;10.90;70.80;;;;;;5013306;28;20092;-56
2021/01/21 02:38:31;;;;;;;7.50;1.85;;;10.90;70.70;;;;;;5010128;28;20065;-55
2021/01/21 02:41:00;;;;;;;4.72;1.45;;;10.90;72.00;;;;;;4994410;28;20482;-56
2021/01/21 02:43:25;;;;;;;5.50;2.08;;;10.80;72.50;;;;;;4988361;28;20065;-55
2021/01/21 02:45:51;;;;;;;5.93;1.58;;;10.80;72.90;;;;;;5004784;28;20038;-56
2021/01/21 02:48:17;;;;;;;5.90;1.92;;;10.70;72.00;;;;;;5012652;28;20111;-56
2021/01/21 02:50:43;;;;;;;6.90;1.63;;;10.80;71.40;;;;;;5013471;28;20042;-55
2021/01/21 02:53:09;;;;;;;3.45;1.48;;;10.90;71.30;;;;;;5010569;28;20129;-56
2021/01/21 02:55:54;;;;;;;4.90;1.83;;;10.90;71.40;;;;;;5012466;28;20038;-56
2021/01/21 02:58:44;;;;;;;8.40;1.73;;;10.90;72.00;;;;;;5000646;28;20045;-56
2021/01/21 03:01:10;;;;;;;5.22;1.95;;;10.90;72.40;;;;;;4987464;28;20052;-56
2021/01/21 03:03:38;;;;;;;5.90;1.65;;;10.90;74.30;;;;;;5011477;28;20034;-57
2021/01/21 03:06:06;;;;;;;4.07;1.67;;;10.80;75.00;;;;;;4995757;28;20556;-56
2021/01/21 03:08:32;;;;;;;4.75;2.00;;;10.80;75.10;;;;;;5011297;28;20042;-56
2021/01/21 03:11:09;;;;;;;3.38;1.73;;;10.70;75.60;;;;;;5008227;28;20042;-56
2021/01/21 03:13:35;;;;;;;5.53;1.90;;;10.70;75.20;;;;;;5011555;28;20521;-56
2021/01/21 03:16:00;;;;;;;4.18;1.60;;;10.70;75.20;;;;;;5012915;28;20042;-56
2021/01/21 03:18:26;;;;;;;3.97;1.65;;;10.70;75.40;;;;;;5012155;28;20042;-55
2021/01/21 03:20:51;;;;;;;2.75;1.48;;;10.80;74.00;;;;;;5010346;28;20488;-56
2021/01/21 03:23:17;;;;;;;6.68;2.10;;;10.80;74.40;;;;;;5011667;28;20103;-56
2021/01/21 03:25:43;;;;;;;4.78;1.90;;;10.90;74.20;;;;;;5001223;28;20414;-56
2021/01/21 03:28:09;;;;;;;5.13;1.80;;;10.80;74.40;;;;;;5012025;28;20069;-56
2021/01/21 03:30:35;;;;;;;3.30;1.65;;;10.90;75.50;;;;;;5008110;28;20062;-56
2021/01/21 03:33:00;;;;;;;7.40;1.70;;;10.80;74.80;;;;;;5011995;28;20030;-56
2021/01/21 03:35:26;;;;;;;3.42;1.55;;;10.90;74.20;;;;;;5011956;28;20100;-56
2021/01/21 03:37:53;;;;;;;4.90;1.65;;;11.00;73.90;;;;;;5011916;28;20100;-55
2021/01/21 03:40:25;;;;;;;4.90;1.60;;;11.00;73.80;;;;;;4994762;28;20490;-56
2021/01/21 03:42:50;;;;;;;5.03;1.67;;;10.90;73.70;;;;;;5010295;28;20402;-53
2021/01/21 03:45:16;;;;;;;3.90;1.33;;;10.90;75.10;;;;;;5011656;28;20049;-54
2021/01/21 03:47:41;;;;;;;3.35;1.52;;;11.10;73.20;;;;;;5012498;28;20046;-54
2021/01/21 03:50:08;;;;;;;3.88;1.52;;;11.00;73.10;;;;;;5012090;28;20038;-54
2021/01/21 03:52:33;;;;;;;5.07;1.83;;;11.10;72.80;;;;;;5012026;28;20108;-54
2021/01/21 03:54:59;;;;;;;4.20;1.70;;;11.10;73.10;;;;;;5010882;28;20049;-54
2021/01/21 03:57:25;;;;;;;5.53;1.73;;;11.00;74.10;;;;;;5011884;28;20407;-57
2021/01/21 03:59:50;;;;;;;3.60;1.45;;;11.00;74.60;;;;;;5006298;28;20042;-57
2021/01/21 04:02:16;;;;;;;7.10;1.70;;;11.10;74.60;;;;;;5001750;28;20041;-56
2021/01/21 04:04:41;;;;;;;9.15;1.58;;;11.00;75.10;;;;;;5012116;28;20069;-54
2021/01/21 04:07:07;;;;;;;3.63;1.50;;;10.90;76.50;;;;;;5011147;28;20087;-54
2021/01/21 04:09:32;;;;;;;3.83;1.55;;;10.90;76.00;;;;;;5011821;28;20034;-54
2021/01/21 04:11:58;;;;;;;3.80;1.67;;;10.90;76.30;;;;;;5009079;28;20080;-54
2021/01/21 04:14:24;;;;;;;6.55;2.00;;;10.80;78.40;;;;;;4981470;28;20060;-52
2021/01/21 04:16:49;;;;;;;7.28;1.90;;;10.70;80.10;;;;;;5000259;28;20043;-54
2021/01/21 04:19:15;;;;;;;5.15;2.28;;;10.70;81.50;;;;;;5012175;28;20486;-54
2021/01/21 04:21:41;;;;;;;4.22;1.88;;;10.50;83.00;;;;;;5008501;28;20034;-57
2021/01/21 04:24:07;;;;;;;4.38;2.05;;;10.30;84.40;;;;;;5000196;28;20030;-57
2021/01/21 04:26:32;;;;;;;6.57;2.17;;;10.30;84.00;;;;;;5011575;28;20200;-56
2021/01/21 04:28:58;;;;;;;3.65;2.00;;;10.30;85.10;;;;;;5002724;28;20045;-55
2021/01/21 04:31:23;;;;;;;5.13;2.25;;;10.20;85.70;;;;;;5011167;28;20045;-54
2021/01/21 04:33:49;;;;;;;3.83;2.00;;;10.20;86.50;;;;;;5008529;28;20100;-54
2021/01/21 04:36:15;;;;;;;6.95;1.80;;;10.10;86.80;;;;;;5011051;28;20537;-55
2021/01/21 04:38:41;;;;;;;4.75;1.88;;;10.10;87.50;;;;;;5009557;28;20100;-54
2021/01/21 04:41:07;;;;;;;4.70;1.80;;;10.00;87.50;;;;;;4993328;28;20038;-55
2021/01/21 04:43:33;;;;;;;4.85;1.80;;;10.00;88.50;;;;;;5010000;28;20042;-56
2021/01/21 04:45:59;;;;;;;5.22;2.30;;;10.00;88.10;;;;;;5009572;28;20093;-57
2021/01/21 04:48:25;;;;;;;8.55;2.38;;;10.00;88.30;;;;;;5009724;28;20045;-54
2021/01/21 04:50:51;;;;;;;1.83;0.95;;;9.80;89.70;;;;;;5006263;28;20074;-54
2021/01/21 04:53:22;;;;;;;4.85;1.10;;;9.50;84.20;;;;;;5000014;28;20147;-57
2021/01/21 04:55:55;;;;;;;2.83;0.80;;;8.90;84.40;;;;;;5010206;28;20050;-54
2021/01/21 04:58:32;;;;;;;4.00;1.05;;;8.40;85.10;;;;;;5011601;28;20053;-58
2021/01/21 05:01:00;;;;;;;1.73;0.68;;;8.10;86.40;;;;;;5008628;28;20046;-52
2021/01/21 05:03:27;;;;;;;4.47;1.08;;;7.80;86.60;;;;;;5010463;28;20038;-53
2021/01/21 05:05:54;;;;;;;2.40;0.57;;;7.60;86.50;;;;;;4996740;28;20126;-54
2021/01/21 05:08:20;;;;;;;4.75;0.85;;;7.50;88.10;;;;;;4994697;28;20058;-58
2021/01/21 05:10:48;;;;;;;4.80;0.80;;;7.50;88.80;;;;;;5009455;28;20489;-58
2021/01/21 05:13:16;;;;;;;4.55;1.48;;;7.40;89.40;;;;;;5010543;28;20488;-58
2021/01/21 05:15:42;;;;;;;6.57;1.20;;;7.40;87.10;;;;;;5006356;28;20104;-58
2021/01/21 05:18:08;;;;;;;4.68;1.30;;;7.30;88.70;;;;;;5007732;28;20049;-58
2021/01/21 05:20:35;;;;;;;7.30;1.40;;;7.40;88.00;;;;;;5010517;28;20042;-59
2021/01/21 05:23:04;;;;;;;3.92;1.02;;;7.40;87.70;;;;;;5009966;28;20126;-58
2021/01/21 05:25:30;;;;;;;7.20;1.60;;;7.40;85.80;;;;;;5010344;28;20042;-58
2021/01/21 05:28:06;;;;;;;5.68;0.85;;;7.40;87.10;;;;;;5010493;28;20050;-57
2021/01/21 05:30:33;;;;;;;4.38;1.10;;;7.40;86.20;;;;;;4999672;28;20091;-58
2021/01/21 05:32:59;;;;;;;6.30;1.20;;;7.40;87.20;;;;;;5006753;28;20076;-57
2021/01/21 05:35:26;;;;;;;4.80;1.13;;;7.30;86.80;;;;;;5010278;28;20057;-58
2021/01/21 05:37:55;;;;;;;4.15;1.10;;;7.30;86.10;;;;;;5008734;28;20080;-58
2021/01/21 05:40:27;;;;;;;5.65;1.10;;;7.30;85.90;;;;;;5010978;28;20473;-58
2021/01/21 05:42:57;;;;;;;4.03;1.10;;;7.30;86.80;;;;;;5002900;28;20041;-57
2021/01/21 05:45:24;;;;;;;5.28;0.95;;;7.30;85.60;;;;;;5009175;28;20274;-56
2021/01/21 05:47:54;;;;;;;5.30;1.00;;;7.40;86.20;;;;;;5006966;28;20042;-57
2021/01/21 05:50:21;;;;;;;4.82;1.08;;;7.30;85.60;;;;;;4994972;28;20406;-57
2021/01/21 05:52:47;;;;;;;6.88;1.85;;;7.30;87.00;;;;;;5013301;28;20088;-57
2021/01/21 05:55:13;;;;;;;6.38;1.00;;;7.30;85.80;;;;;;5004306;28;20080;-57
2021/01/21 05:57:39;;;;;;;6.75;1.30;;;7.40;85.30;;;;;;5011979;28;20116;-57
2021/01/21 06:00:06;;;;;;;5.90;1.23;;;7.40;86.30;;;;;;5014031;28;20037;-57
2021/01/21 06:02:32;;;;;;;8.63;1.30;;;7.40;85.40;;;;;;5013776;28;20042;-58
2021/01/21 06:05:02;;;;;;;6.88;1.20;;;7.40;84.70;;;;;;5003994;28;20046;-58
2021/01/21 06:07:30;;;;;;;7.63;1.63;;;7.50;84.50;;;;;;5012345;28;20046;-58
2021/01/21 06:09:58;;;;;;;10.35;1.67;;;7.50;86.30;;;;;;5014156;28;20064;-58
2021/01/21 06:12:27;;;;;;;9.65;1.58;;;7.60;85.90;;;;;;4997691;28;20400;-58
2021/01/21 06:14:59;;;;;;;10.98;1.67;;;7.60;85.00;;;;;;5000727;28;20041;-57
2021/01/21 06:17:28;;;;;;;5.60;1.27;;;7.50;84.70;;;;;;5013361;28;20042;-56
2021/01/21 06:19:54;;;;;;;12.93;2.17;;;7.50;85.90;;;;;;5013965;28;20050;-57
2021/01/21 06:22:29;;;;;;;11.23;1.77;;;7.50;85.40;;;;;;5004112;28;20045;-57
2021/01/21 06:24:59;;;;;;;16.20;2.10;;;7.60;85.80;;;;;;5008106;28;20517;-57
2021/01/21 06:27:27;;;;;;;12.80;1.77;;;7.50;83.70;;;;;;5012859;28;20513;-57
2021/01/21 06:29:55;;;;;;;11.23;2.10;;;7.60;82.90;;;;;;5007747;28;20144;-57
2021/01/21 06:32:27;;;;;;;11.45;2.20;;;7.60;83.70;;;;;;5007431;28;20052;-56
2021/01/21 06:34:53;;;;;;;;;;;7.60;83.10;;;;;;5021877;28;20469;-57
2021/01/21 06:37:21;;;;;;;8.50;1.77;;;7.50;82.10;;;;;;5013364;28;20012;-57
2021/01/21 06:39:50;;;;;;;12.25;1.75;;;7.40;83.30;;;;;;5012865;28;20133;-57
2021/01/21 06:42:19;;;;;;;10.30;1.90;;;7.30;83.30;;;;;;5012672;28;20453;-57
2021/01/21 06:44:48;;;;;;;7.60;1.65;;;7.30;83.30;;;;;;5009664;28;20041;-57
2021/01/21 06:47:14;;;;;;;12.00;2.38;;;7.30;82.00;;;;;;5013645;28;20061;-57
2021/01/21 06:49:40;;;;;;;14.00;1.63;;;7.30;80.50;;;;;;5009073;28;20066;-56
2021/01/21 06:52:08;;;;;;;5.25;1.38;;;7.30;80.50;;;;;;5006911;28;20061;-55
2021/01/21 06:54:35;;;;;;;12.00;1.85;;;7.20;79.80;;;;;;4989627;28;20037;-57
2021/01/21 06:57:01;;;;;;;8.95;1.52;;;7.10;79.80;;;;;;5009720;28;20478;-57
2021/01/21 06:59:52;;;;;;;5.57;1.35;;;7.10;78.80;;;;;;5012124;28;20136;-57
2021/01/21 07:02:41;;;;;;;8.57;1.95;;;7.00;80.00;;;;;;5008018;28;20050;-55
2021/01/21 07:05:16;;;;;;;7.78;1.73;;;7.00;80.50;;;;;;5010932;28;20038;-57
2021/01/21 07:07:53;;;;;;;9.20;1.90;;;6.90;81.80;;;;;;5005823;28;20186;-57
2021/01/21 07:10:21;;;;;;;9.90;1.77;;;6.90;81.00;;;;;;5008961;28;20041;-57
2021/01/21 07:12:48;;;;;;;7.38;1.10;;;6.90;81.80;;;;;;5010326;28;20050;-57
2021/01/21 07:15:15;;;;;;;9.95;1.73;;;6.90;80.90;;;;;;5010229;28;20045;-57
2021/01/21 07:17:41;;;;;;;8.38;1.83;;;7.10;79.90;;;;;;5010676;28;20049;-56
2021/01/21 07:20:07;;;;;;;7.53;1.52;;;7.00;81.80;;;;;;5009418;28;20487;-57
2021/01/21 07:22:32;;;;;;;8.00;1.40;;;6.90;81.00;;;;;;5008274;28;20045;-57
2021/01/21 07:25:01;;;;;;;7.97;1.60;;;6.90;79.80;;;;;;5009634;28;20446;-57
2021/01/21 07:27:29;;;;;;;8.13;1.67;;;6.90;80.20;;;;;;4997127;28;20042;-54
2021/01/21 07:30:36;;;;;;;6.72;1.60;;;6.80;80.20;;;;;;4998377;28;20486;-57
2021/01/21 07:33:23;;;;;;;5.43;1.27;;;6.70;79.80;;;;;;4930554;29;20103;-57
2021/01/21 07:35:52;;;;;;;10.02;2.22;;;6.70;79.90;;;;;;4933514;29;20051;-56
2021/01/21 07:38:50;;;;;;;8.10;1.77;;;6.70;81.70;;;;;;4983376;28;20137;-57
2021/01/21 07:41:46;;;;;;;8.55;1.98;;;6.70;81.90;;;;;;5006801;28;20060;-57
2021/01/21 07:44:12;;;;;;;7.95;2.22;;;6.70;82.10;;;;;;5005201;28;20536;-57
2021/01/21 07:46:38;;;;;;;16.98;2.30;;;6.60;81.40;;;;;;5011524;28;20054;-57
2021/01/21 07:49:29;;;;;;;8.23;1.88;;;6.70;82.10;;;;;;5009113;28;20421;-57
2021/01/21 07:52:05;;;;;;;10.02;1.95;;;6.70;81.90;;;;;;5007130;28;20434;-57
2021/01/21 07:54:44;;;;;;;9.25;2.13;;;6.70;82.10;;;;;;5006346;28;20053;-58
2021/01/21 07:57:10;;;;;;;11.07;2.22;;;6.80;81.70;;;;;;5004048;28;20095;-58
2021/01/21 07:59:55;;;;;;;12.20;1.95;;;6.70;80.80;;;;;;5004313;28;20113;-57
2021/01/21 08:02:21;;;;;;;12.27;1.80;;;6.70;80.20;;;;;;5006463;28;20038;-57
2021/01/21 08:05:00;;;;;;;8.40;1.50;;;6.60;79.10;;;;;;5006398;28;20096;-58
2021/01/21 08:07:49;;;;;;;7.90;1.70;;;6.70;79.40;;;;;;5003964;28;20054;-57
2021/01/21 08:10:20;;;;;;;8.95;2.13;;;6.70;80.20;;;;;;5006139;28;20116;-57
2021/01/21 08:12:53;;;;;;;8.20;1.75;;;6.60;79.60;;;;;;5004575;28;20049;-58
2021/01/21 08:15:19;;;;;;;16.52;1.98;;;6.70;79.70;;;;;;5002538;28;20124;-57
2021/01/21 08:17:46;;;;;;;10.73;2.08;;;6.70;79.80;;;;;;4997165;28;20057;-58
2021/01/21 08:20:15;;;;;;;13.70;1.75;;;6.70;80.70;;;;;;5011505;28;20045;-57
2021/01/21 08:22:54;;;;;;;9.23;1.38;;;6.70;80.30;;;;;;4997476;28;20057;-57
2021/01/21 08:25:21;;;;;;;8.20;1.60;;;6.80;82.30;;;;;;4996434;28;20046;-56
2021/01/21 08:27:48;;;;;;;7.43;1.50;;;6.80;81.50;;;;;;5007465;28;20058;-57
2021/01/21 08:30:22;;;;;;;7.82;1.40;;;6.80;81.10;;;;;;5011293;28;20113;-57
2021/01/21 08:32:59;;;;;;;6.35;1.38;;;6.80;80.50;;;;;;5003803;28;20141;-57
2021/01/21 08:35:28;;;;;;;8.13;1.50;;;6.80;80.00;;;;;;5004662;28;20072;-57
2021/01/21 08:37:55;;;;;;;9.65;2.00;;;6.80;80.40;;;;;;5008189;28;20486;-57
2021/01/21 08:40:22;;;;;;;8.73;1.75;;;6.80;78.90;;;;;;5007776;28;20046;-58
2021/01/21 08:42:50;;;;;;;5.53;1.20;;;6.80;80.60;;;;;;5005144;28;20057;-58
2021/01/21 08:45:17;;;;;;;11.18;1.85;;;6.80;80.10;;;;;;5010360;28;20045;-57
2021/01/21 08:47:45;;;;;;;8.35;1.33;;;6.80;79.40;;;;;;5011124;28;20406;-56
2021/01/21 08:50:11;;;;;;;8.95;1.83;;;6.80;78.80;;;;;;5009847;28;20442;-58
2021/01/21 08:52:58;;;;;;;7.35;1.63;;;6.90;78.80;;;;;;5010249;28;20494;-57
2021/01/21 08:55:35;;;;;;;11.40;1.88;;;6.80;78.50;;;;;;5007074;28;20502;-58
2021/01/21 08:58:02;;;;;;;7.28;1.90;;;6.80;78.30;;;;;;4997648;28;20034;-57
2021/01/21 09:00:29;;;;;;;14.07;2.08;;;6.70;79.40;;;;;;5008232;28;20411;-57
2021/01/21 09:02:55;;;;;;;6.15;1.98;;;6.60;78.40;;;;;;4998919;28;20414;-57
2021/01/21 09:05:21;;;;;;;10.32;1.90;;;6.70;79.50;;;;;;5010678;28;20042;-57
2021/01/21 09:07:48;;;;;;;10.57;1.83;;;6.60;79.70;;;;;;5010467;28;20042;-57
2021/01/21 09:10:15;;;;;;;12.80;2.05;;;6.60;79.10;;;;;;5007383;28;20037;-58
2021/01/21 09:12:40;;;;;;;7.18;1.90;;;6.60;78.70;;;;;;5005168;28;20050;-58
2021/01/21 09:15:08;;;;;;;8.45;1.60;;;6.60;77.70;;;;;;5005525;28;20184;-57
2021/01/21 09:17:37;;;;;;;8.05;1.55;;;6.60;78.90;;;;;;4997637;28;20049;-57
2021/01/21 09:20:21;;;;;;;10.73;1.70;;;6.70;78.90;;;;;;5005411;28;20061;-57
2021/01/21 09:22:49;;;;;;;4.47;1.50;;;6.70;78.20;;;;;;5004462;28;20430;-57
2021/01/21 09:25:24;;;;;;;6.85;2.00;;;6.70;77.20;;;;;;5009417;28;20042;-57
2021/01/21 09:27:54;;;;;;;8.98;2.08;;;6.80;78.40;;;;;;5009464;28;20133;-57
2021/01/21 09:30:20;;;;;;;13.27;1.80;;;6.70;77.80;;;;;;5010244;28;20034;-58
2021/01/21 09:32:46;;;;;;;7.30;1.98;;;6.80;78.70;;;;;;5003274;28;20049;-57
2021/01/21 09:35:15;;;;;;;8.40;1.80;;;6.90;77.50;;;;;;5004735;28;20418;-56
2021/01/21 09:37:45;;;;;;;8.30;1.65;;;6.80;79.20;;;;;;5006863;28;20081;-57
2021/01/21 09:40:17;;;;;;;7.75;2.13;;;6.80;78.80;;;;;;5010171;28;20037;-58
2021/01/21 09:42:43;;;;;;;13.73;2.20;;;6.80;79.10;;;;;;5000790;28;20060;-57
2021/01/21 09:45:10;;;;;;;8.32;1.98;;;7.00;78.60;;;;;;5010332;28;20487;-57
2021/01/21 09:47:37;;;;;;;7.90;2.10;;;7.00;78.90;;;;;;5010467;28;20092;-57
2021/01/21 09:50:05;;;;;;;8.73;2.10;;;7.00;79.70;;;;;;5006402;28;20520;-56
2021/01/21 09:52:32;;;;;;;8.10;2.00;;;7.10;79.00;;;;;;5008324;28;20065;-57
2021/01/21 09:54:58;;;;;;;10.98;2.15;;;7.20;79.00;;;;;;4998577;28;20068;-57
2021/01/21 09:57:25;;;;;;;9.25;2.20;;;7.20;79.10;;;;;;4990943;28;20576;-58
2021/01/21 09:59:50;;;;;;;13.93;2.28;;;7.20;78.00;;;;;;5007238;28;20048;-57
2021/01/21 10:02:16;;;;;;;15.30;3.13;;;7.30;78.70;;;;;;5008402;28;20049;-57
2021/01/21 10:04:44;;;;;;;10.93;2.10;;;7.30;78.00;;;;;;5006453;28;20564;-57
2021/01/21 10:07:10;;;;;;;10.60;1.85;;;7.30;78.30;;;;;;5009758;28;20033;-57
2021/01/21 10:09:36;;;;;;;11.93;2.00;;;7.40;77.20;;;;;;5005703;28;20085;-58
2021/01/21 10:12:02;;;;;;;9.07;1.90;;;7.40;77.70;;;;;;5009901;28;20045;-57
2021/01/21 10:14:28;;;;;;;12.93;2.47;;;7.40;78.20;;;;;;5008295;28;20478;-58
2021/01/21 10:16:55;;;;;;;13.82;2.83;;;7.40;77.60;;;;;;5010147;28;20050;-57
2021/01/21 10:19:21;;;;;;;10.60;2.33;;;7.50;77.70;;;;;;5007259;28;20038;-56
2021/01/21 10:21:46;;;;;;;9.20;1.77;;;7.60;78.80;;;;;;4998347;28;20048;-58
2021/01/21 10:24:12;;;;;;;14.13;2.40;;;7.60;77.70;;;;;;5010883;28;20117;-58
2021/01/21 10:26:38;;;;;;;12.98;2.20;;;7.60;77.30;;;;;;5009703;28;20057;-58
2021/01/21 10:29:04;;;;;;;17.65;2.92;;;7.60;77.60;;;;;;5009880;28;20038;-58
2021/01/21 10:31:30;;;;;;;10.82;2.08;;;7.70;77.70;;;;;;5013357;28;20093;-56
2021/01/21 10:33:57;;;;;;;8.98;1.83;;;7.70;77.00;;;;;;5014687;28;20100;-57
2021/01/21 10:36:23;;;;;;;10.10;3.00;;;7.80;76.20;;;;;;5011835;28;20046;-55
2021/01/21 10:38:48;;;;;;;10.10;2.38;;;7.80;75.90;;;;;;5014725;28;20514;-54
2021/01/21 10:41:14;;;;;;;8.90;1.83;;;7.80;76.50;;;;;;5011956;28;20544;-57
2021/01/21 10:43:39;;;;;;;11.68;2.10;;;7.90;76.10;;;;;;5010080;28;20037;-55
2021/01/21 10:46:05;;;;;;;13.00;2.83;;;7.80;76.80;;;;;;5006856;28;20112;-55
2021/01/21 10:48:31;;;;;;;12.75;2.35;;;7.90;77.90;;;;;;5012661;28;20100;-55
2021/01/21 10:50:57;;;;;;;13.20;2.28;;;8.00;75.70;;;;;;5013118;28;20513;-57
2021/01/21 10:53:22;;;;;;;12.77;2.50;;;8.00;75.90;;;;;;5009934;28;20069;-55
2021/01/21 10:55:48;;;;;;;13.60;2.35;;;8.00;76.50;;;;;;5009137;28;20461;-56
2021/01/21 10:58:14;;;;;;;10.63;1.98;;;8.00;75.90;;;;;;5010091;28;20090;-57
2021/01/21 11:00:40;;;;;;;11.80;2.50;;;8.10;76.20;;;;;;5003161;28;20041;-57
2021/01/21 11:03:06;;;;;;;12.43;2.20;;;8.10;77.00;;;;;;4998939;28;20099;-58
2021/01/21 11:05:32;;;;;;;14.00;2.25;;;8.10;76.10;;;;;;5010743;28;20050;-57
2021/01/21 11:07:57;;;;;;;11.30;2.30;;;8.20;76.70;;;;;;5012477;28;20038;-55
2021/01/21 11:10:23;;;;;;;9.70;2.35;;;8.20;77.30;;;;;;5010297;28;20042;-54
2021/01/21 11:12:49;;;;;;;16.27;2.92;;;8.20;77.30;;;;;;4991886;28;20521;-53
2021/01/21 11:15:16;;;;;;;12.48;2.05;;;8.20;77.40;;;;;;5010485;28;20471;-55
2021/01/21 11:17:44;;;;;;;12.73;2.60;;;8.30;77.30;;;;;;5011722;28;20097;-56
2021/01/21 11:20:12;;;;;;;9.07;2.15;;;8.30;76.30;;;;;;5010886;28;20117;-55
2021/01/21 11:22:38;;;;;;;11.93;2.03;;;8.30;76.90;;;;;;5008114;28;20050;-53
2021/01/21 11:25:08;;;;;;;15.75;2.45;;;8.30;77.40;;;;;;5008311;28;20045;-51
2021/01/21 11:27:35;;;;;;;14.05;3.00;;;8.40;76.50;;;;;;5003718;28;20050;-57
2021/01/21 11:30:05;;;;;;;16.33;2.47;;;8.30;76.50;;;;;;5008183;28;20052;-51
2021/01/21 11:32:30;;;;;;;10.98;2.13;;;8.30;76.50;;;;;;5008647;28;20037;-57
2021/01/21 11:34:56;;;;;;;11.10;2.20;;;8.30;76.80;;;;;;5006868;28;20106;-56
2021/01/21 11:37:22;;;;;;;9.43;2.03;;;8.30;76.50;;;;;;5011257;28;20481;-56
2021/01/21 11:39:48;;;;;;;14.43;2.78;;;8.40;76.20;;;;;;5009335;28;20053;-55
2021/01/21 11:42:14;;;;;;;9.45;2.28;;;8.40;76.90;;;;;;5007878;28;20562;-55
2021/01/21 11:44:40;;;;;;;11.27;2.30;;;8.40;77.00;;;;;;5012556;28;20077;-55
2021/01/21 11:47:05;;;;;;;6.55;1.98;;;8.50;76.20;;;;;;5007364;28;20046;-57
2021/01/21 11:49:31;;;;;;;8.90;2.13;;;8.50;76.50;;;;;;5012399;28;20048;-57
2021/01/21 11:51:58;;;;;;;13.68;2.63;;;8.50;75.60;;;;;;5010801;28;20041;-55
2021/01/21 11:54:24;;;;;;;9.25;2.38;;;8.60;75.80;;;;;;5011271;28;20041;-57
2021/01/21 11:56:49;;;;;;;9.75;2.03;;;8.60;76.40;;;;;;5010457;28;20046;-54
2021/01/21 11:59:15;;;;;;;11.52;2.88;;;8.60;75.50;;;;;;5008475;28;20449;-57
2021/01/21 12:01:41;;;;;;;10.60;1.80;;;8.70;74.30;;;;;;5011607;28;20046;-55
2021/01/21 12:04:07;;;;;;;7.47;2.10;;;8.60;75.50;;;;;;5007756;28;20038;-57
2021/01/21 12:06:33;;;;;;;11.52;2.05;;;8.60;75.30;;;;;;5011938;28;20045;-56
2021/01/21 12:08:58;;;;;;;10.45;2.05;;;8.60;74.60;;;;;;5010227;28;20052;-58
2021/01/21 12:11:24;;;;;;;8.95;2.20;;;8.60;75.30;;;;;;5007772;28;20092;-57
2021/01/21 12:13:50;;;;;;;8.00;1.88;;;8.60;74.90;;;;;;5010978;28;20060;-57
2021/01/21 12:16:15;;;;;;;10.77;1.98;;;8.60;75.40;;;;;;5010429;28;20050;-56
2021/01/21 12:18:42;;;;;;;9.27;2.17;;;8.60;76.40;;;;;;5010756;28;20064;-57
2021/01/21 12:21:07;;;;;;;11.27;3.28;;;8.50;76.10;;;;;;5007604;28;20054;-54
2021/01/21 12:23:35;;;;;;;11.45;2.17;;;8.50;76.80;;;;;;5009856;28;20049;-55
2021/01/21 12:26:01;;;;;;;8.43;1.85;;;8.60;75.50;;;;;;5011860;28;20046;-57
2021/01/21 12:28:28;;;;;;;9.57;2.17;;;8.60;75.40;;;;;;4972764;28;20125;-54
2021/01/21 12:30:53;;;;;;;7.10;2.15;;;8.60;75.30;;;;;;5011375;28;20405;-54
2021/01/21 12:33:19;;;;;;;6.55;1.88;;;8.60;75.40;;;;;;5012337;28;20117;-55
2021/01/21 12:35:45;;;;;;;8.85;1.80;;;8.50;75.40;;;;;;5012583;28;20042;-54
2021/01/21 12:38:11;;;;;;;6.00;1.40;;;8.50;76.00;;;;;;5005147;28;20482;-56
2021/01/21 12:40:36;;;;;;;6.35;1.77;;;8.50;77.40;;;;;;5013875;28;20041;-55
2021/01/21 12:43:02;;;;;;;7.72;2.15;;;8.40;76.40;;;;;;5012681;28;20092;-56
2021/01/21 12:45:28;;;;;;;9.63;2.38;;;8.50;74.50;;;;;;5009013;28;20690;-57
2021/01/21 12:47:54;;;;;;;6.68;2.33;;;8.50;76.10;;;;;;5004454;28;20686;-57
2021/01/21 12:50:19;;;;;;;7.72;2.25;;;8.40;76.80;;;;;;5007252;28;20072;-54
2021/01/21 12:52:45;;;;;;;7.38;2.13;;;8.40;77.40;;;;;;5000754;28;20482;-56
2021/01/21 12:55:11;;;;;;;6.50;1.80;;;8.40;77.60;;;;;;5004485;28;20077;-54
2021/01/21 12:57:39;;;;;;;5.78;1.85;;;8.40;77.60;;;;;;5010392;28;20065;-56